createdAt,value
2024-04-24T00:00:04.013Z,86
2024-04-24T00:01:10.292Z,86
2024-04-24T00:02:16.556Z,86
2024-04-24T00:03:22.836Z,86
2024-04-24T00:04:29.116Z,86
2024-04-24T00:05:34.387Z,86
2024-04-24T00:06:40.668Z,86
2024-04-24T00:07:46.940Z,86
2024-04-24T00:08:53.221Z,85.5
2024-04-24T00:09:59.491Z,85.5
2024-04-24T00:11:05.909Z,85.5
2024-04-24T00:12:12.033Z,86
2024-04-24T00:13:18.295Z,86
2024-04-24T00:14:24.609Z,86
2024-04-24T00:15:30.917Z,86
2024-04-24T00:16:37.118Z,86
2024-04-24T00:17:43.382Z,85.5
2024-04-24T00:18:49.815Z,85.5
2024-04-24T00:19:54.957Z,85.5
2024-04-24T00:21:01.219Z,86
2024-04-24T00:22:07.492Z,86
2024-04-24T00:23:13.751Z,86
2024-04-24T00:24:20.037Z,86
2024-04-24T00:25:26.322Z,86
2024-04-24T00:26:32.579Z,86
2024-04-24T00:27:38.855Z,86
2024-04-24T00:28:45.131Z,86
2024-04-24T00:29:51.383Z,86
2024-04-24T00:30:57.667Z,86
2024-04-24T00:32:03.939Z,86
2024-04-24T00:33:10.220Z,86
2024-04-24T00:34:15.493Z,86
2024-04-24T00:35:21.781Z,86
2024-04-24T00:36:28.042Z,86
2024-04-24T00:37:34.327Z,86
2024-04-24T00:38:40.592Z,86
2024-04-24T00:39:46.861Z,86
2024-04-24T00:40:53.136Z,86
2024-04-24T00:41:59.408Z,86.5
2024-04-24T00:43:05.681Z,86.5
2024-04-24T00:44:11.948Z,87
2024-04-24T00:45:18.225Z,87.5
2024-04-24T00:46:24.507Z,87.5
2024-04-24T00:47:31.337Z,87.5
2024-04-24T00:48:36.063Z,87.5
2024-04-24T00:49:42.368Z,88
2024-04-24T00:50:48.598Z,88
2024-04-24T00:51:54.871Z,88.5
2024-04-24T00:53:01.128Z,88.5
2024-04-24T00:54:07.423Z,88.5
2024-04-24T00:55:13.678Z,88.5
2024-04-24T00:56:19.956Z,89
2024-04-24T00:57:26.238Z,89
2024-04-24T00:58:32.533Z,89
2024-04-24T00:59:38.784Z,89
2024-04-24T01:00:45.050Z,89
2024-04-24T01:01:51.395Z,89
2024-04-24T01:02:56.628Z,89
2024-04-24T01:04:02.899Z,89
2024-04-24T01:05:09.153Z,89
2024-04-24T01:06:15.463Z,89
2024-04-24T01:07:21.692Z,88.5
2024-04-24T01:08:27.991Z,88.5
2024-04-24T01:09:34.254Z,88.5
2024-04-24T01:10:40.515Z,88
2024-04-24T01:11:46.835Z,88
2024-04-24T01:12:53.070Z,88
2024-04-24T01:13:59.332Z,88
2024-04-24T01:15:05.612Z,88
2024-04-24T01:16:12.099Z,87.5
2024-04-24T01:17:17.176Z,87.5
2024-04-24T01:18:23.449Z,87
2024-04-24T01:19:29.717Z,87
2024-04-24T01:20:35.988Z,87
2024-04-24T01:21:42.263Z,87
2024-04-24T01:22:48.538Z,86.5
2024-04-24T01:23:54.802Z,86.5
2024-04-24T01:25:01.076Z,86.5
2024-04-24T01:26:07.344Z,86.5
2024-04-24T01:27:13.618Z,86.5
2024-04-24T01:28:19.885Z,87
2024-04-24T01:29:26.157Z,86.5
2024-04-24T01:30:32.450Z,86.5
2024-04-24T01:31:37.721Z,86.5
2024-04-24T01:32:44.003Z,87
2024-04-24T01:33:50.267Z,87
2024-04-24T01:34:56.554Z,87
2024-04-24T01:36:02.811Z,87.5
2024-04-24T01:37:09.084Z,87.5
2024-04-24T01:38:15.358Z,87.5
2024-04-24T01:39:21.626Z,87.5
2024-04-24T01:40:27.905Z,88
2024-04-24T01:41:34.173Z,88
2024-04-24T01:42:40.447Z,87.5
2024-04-24T01:43:46.719Z,87.5
2024-04-24T01:44:53.000Z,88
2024-04-24T01:45:58.284Z,88
2024-04-24T01:47:04.551Z,88
2024-04-24T01:48:10.830Z,88
2024-04-24T01:49:17.110Z,88
2024-04-24T01:50:23.371Z,88
2024-04-24T01:51:29.642Z,88
2024-04-24T01:52:35.907Z,88
2024-04-24T01:53:42.183Z,88
2024-04-24T01:54:48.459Z,88
2024-04-24T01:55:54.728Z,88
2024-04-24T01:57:01.006Z,88
2024-04-24T01:58:07.277Z,88
2024-04-24T01:59:13.542Z,87
2024-04-24T02:00:18.842Z,87
2024-04-24T02:01:25.111Z,87
2024-04-24T02:02:31.367Z,85
2024-04-24T02:03:37.653Z,84.5
2024-04-24T02:04:43.939Z,84.5
2024-04-24T02:05:50.197Z,83.5
2024-04-24T02:06:56.467Z,82
2024-04-24T02:08:02.738Z,82
2024-04-24T02:09:09.017Z,82.5
2024-04-24T02:10:15.274Z,82.5
2024-04-24T02:11:21.555Z,82
2024-04-24T02:12:27.822Z,82
2024-04-24T02:13:34.109Z,81
2024-04-24T02:14:39.391Z,81.5
2024-04-24T02:15:45.654Z,81
2024-04-24T02:16:51.925Z,81.5
2024-04-24T02:17:58.205Z,81
2024-04-24T02:19:04.481Z,81
2024-04-24T02:20:10.745Z,80.5
2024-04-24T02:21:17.082Z,80.5
2024-04-24T02:22:23.292Z,80.5
2024-04-24T02:23:29.557Z,80.5
2024-04-24T02:24:35.905Z,80.5
2024-04-24T02:25:42.122Z,80
2024-04-24T02:26:48.377Z,80.5
2024-04-24T02:27:54.658Z,81
2024-04-24T02:28:59.945Z,81
2024-04-24T02:30:06.211Z,80.5
2024-04-24T02:31:12.481Z,80.5
2024-04-24T02:32:18.756Z,81
2024-04-24T02:33:25.030Z,80.5
2024-04-24T02:34:31.402Z,81
2024-04-24T02:35:37.579Z,80
2024-04-24T02:36:43.844Z,79
2024-04-24T02:37:50.122Z,79.5
2024-04-24T02:38:56.388Z,79.5
2024-04-24T02:40:02.655Z,79
2024-04-24T02:41:08.935Z,79
2024-04-24T02:42:15.214Z,78.5
2024-04-24T02:43:20.500Z,78.5
2024-04-24T02:44:26.778Z,79
2024-04-24T02:45:33.051Z,78.5
2024-04-24T02:46:39.314Z,78.5
2024-04-24T02:47:45.588Z,77.5
2024-04-24T02:48:51.859Z,77.5
2024-04-24T02:49:58.140Z,78
2024-04-24T02:51:04.397Z,78.5
2024-04-24T02:52:10.678Z,79
2024-04-24T02:53:16.937Z,78.5
2024-04-24T02:54:23.222Z,78.5
2024-04-24T02:55:29.497Z,78.5
2024-04-24T02:56:35.757Z,78.5
2024-04-24T02:57:41.057Z,77.5
2024-04-24T02:58:47.326Z,78
2024-04-24T02:59:53.597Z,78.5
2024-04-24T03:00:59.879Z,78
2024-04-24T03:02:06.136Z,77
2024-04-24T03:03:12.427Z,77.5
2024-04-24T03:04:18.697Z,78
2024-04-24T03:05:24.954Z,77
2024-04-24T03:06:31.241Z,77
2024-04-24T03:07:37.495Z,78
2024-04-24T03:08:43.781Z,78
2024-04-24T03:09:50.048Z,78
2024-04-24T03:10:56.335Z,78
2024-04-24T03:12:01.612Z,78.5
2024-04-24T03:13:07.873Z,78.5
2024-04-24T03:14:14.161Z,79
2024-04-24T03:15:20.431Z,78.5
2024-04-24T03:16:26.712Z,78
2024-04-24T03:17:32.965Z,78.5
2024-04-24T03:18:38.281Z,78
2024-04-24T03:19:44.557Z,78
2024-04-24T03:20:50.815Z,77.5
2024-04-24T03:21:57.088Z,78
2024-04-24T03:23:03.347Z,78.5
2024-04-24T03:24:09.620Z,78.5
2024-04-24T03:25:15.905Z,78.5
2024-04-24T03:26:22.172Z,79
2024-04-24T03:27:28.445Z,79
2024-04-24T03:28:34.738Z,79
2024-04-24T03:29:40.994Z,79
2024-04-24T03:30:47.260Z,79.5
2024-04-24T03:31:53.533Z,79.5
2024-04-24T03:32:58.828Z,79.5
2024-04-24T03:34:05.098Z,79.5
2024-04-24T03:35:11.363Z,79
2024-04-24T03:36:17.643Z,79
2024-04-24T03:37:23.914Z,79
2024-04-24T03:38:30.183Z,79
2024-04-24T03:39:36.455Z,78.5
2024-04-24T03:40:42.732Z,78.5
2024-04-24T03:41:49.005Z,78.5
2024-04-24T03:42:55.273Z,78.5
2024-04-24T03:44:01.539Z,78.5
2024-04-24T03:45:07.813Z,79
2024-04-24T03:46:14.075Z,79.5
2024-04-24T03:47:19.381Z,79.5
2024-04-24T03:48:25.649Z,79.5
2024-04-24T03:49:31.931Z,80
2024-04-24T03:50:38.196Z,80
2024-04-24T03:51:44.455Z,80.5
2024-04-24T03:52:50.738Z,80
2024-04-24T03:53:57.011Z,80
2024-04-24T03:55:03.272Z,80.5
2024-04-24T03:56:09.544Z,80.5
2024-04-24T03:57:15.821Z,80
2024-04-24T03:58:22.089Z,80
2024-04-24T03:59:28.375Z,80
2024-04-24T04:00:34.646Z,80
2024-04-24T04:01:39.944Z,79.5
2024-04-24T04:02:46.217Z,79.5
2024-04-24T04:03:52.487Z,80
2024-04-24T04:04:58.751Z,80
2024-04-24T04:06:05.034Z,79.5
2024-04-24T04:07:11.294Z,79.5
2024-04-24T04:08:17.571Z,79.5
2024-04-24T04:09:24.130Z,79.5
2024-04-24T04:10:30.120Z,78.5
2024-04-24T04:11:36.381Z,78.5
2024-04-24T04:12:42.661Z,78.5
2024-04-24T04:13:48.924Z,78
2024-04-24T04:14:55.197Z,76
2024-04-24T04:16:00.500Z,76.5
2024-04-24T04:17:06.758Z,77.5
2024-04-24T04:18:13.035Z,76.5
2024-04-24T04:19:19.300Z,76.5
2024-04-24T04:20:25.613Z,76.5
2024-04-24T04:21:31.853Z,77
2024-04-24T04:22:38.150Z,76
2024-04-24T04:23:44.396Z,75.5
2024-04-24T04:24:50.668Z,76.5
2024-04-24T04:25:56.940Z,77.5
2024-04-24T04:27:03.223Z,78.5
2024-04-24T04:28:09.508Z,79
2024-04-24T04:29:15.754Z,80
2024-04-24T04:30:21.065Z,80.5
2024-04-24T04:31:27.317Z,81
2024-04-24T04:32:33.590Z,81.5
2024-04-24T04:33:39.864Z,81.5
2024-04-24T04:34:46.136Z,82
2024-04-24T04:35:52.407Z,82
2024-04-24T04:36:58.692Z,82
2024-04-24T04:38:04.952Z,82
2024-04-24T04:39:11.224Z,82
2024-04-24T04:40:17.521Z,82.5
2024-04-24T04:41:23.769Z,82.5
2024-04-24T04:42:30.048Z,82.5
2024-04-24T04:43:36.318Z,82
2024-04-24T04:44:41.602Z,82
2024-04-24T04:45:47.868Z,81.5
2024-04-24T04:46:54.135Z,81.5
2024-04-24T04:48:00.434Z,81
2024-04-24T04:49:06.692Z,81
2024-04-24T04:50:12.954Z,81.5
2024-04-24T04:51:19.227Z,81.5
2024-04-24T04:52:25.502Z,81
2024-04-24T04:53:31.785Z,81
2024-04-24T04:54:38.057Z,81
2024-04-24T04:55:44.318Z,81.5
2024-04-24T04:56:50.603Z,81
2024-04-24T04:57:56.876Z,81.5
2024-04-24T04:59:02.167Z,81.5
2024-04-24T05:00:08.440Z,81.5
2024-04-24T05:01:14.706Z,81.5
2024-04-24T05:02:20.973Z,81
2024-04-24T05:03:27.252Z,81
2024-04-24T05:04:33.516Z,81
2024-04-24T05:05:39.792Z,81.5
2024-04-24T05:06:46.071Z,81.5
2024-04-24T05:07:52.338Z,81.5
2024-04-24T05:08:58.623Z,81
2024-04-24T05:10:04.891Z,81
2024-04-24T05:11:11.156Z,81.5
2024-04-24T05:12:17.434Z,81.5
2024-04-24T05:13:22.722Z,82
2024-04-24T05:14:28.993Z,82
2024-04-24T05:15:35.268Z,82.5
2024-04-24T05:16:41.533Z,82.5
2024-04-24T05:17:47.802Z,82.5
2024-04-24T05:18:54.074Z,82.5
2024-04-24T05:20:00.381Z,82.5
2024-04-24T05:21:06.626Z,82
2024-04-24T05:22:12.895Z,82
2024-04-24T05:23:19.165Z,82
2024-04-24T05:24:25.432Z,82.5
2024-04-24T05:25:31.707Z,82
2024-04-24T05:26:38.004Z,81
2024-04-24T05:27:43.274Z,81
2024-04-24T05:28:49.550Z,80.5
2024-04-24T05:29:55.822Z,80.5
2024-04-24T05:31:02.082Z,80.5
2024-04-24T05:32:08.363Z,80.5
2024-04-24T05:33:14.660Z,80.5
2024-04-24T05:34:20.891Z,80.5
2024-04-24T05:35:27.176Z,80
2024-04-24T05:36:33.453Z,80.5
2024-04-24T05:37:39.723Z,79.5
2024-04-24T05:38:45.999Z,79
2024-04-24T05:39:52.267Z,78.5
2024-04-24T05:40:58.539Z,78.5
2024-04-24T05:42:03.883Z,78.5
2024-04-24T05:43:10.102Z,78.5
2024-04-24T05:44:16.373Z,78.5
2024-04-24T05:45:22.653Z,78.5
2024-04-24T05:46:28.921Z,78
2024-04-24T05:47:35.191Z,78.5
2024-04-24T05:48:41.454Z,78.5
2024-04-24T05:49:47.732Z,78
2024-04-24T05:50:54.095Z,78
2024-04-24T05:52:00.270Z,78
2024-04-24T05:53:06.542Z,78
2024-04-24T05:54:12.835Z,78.5
2024-04-24T05:55:19.099Z,78.5
2024-04-24T05:56:24.385Z,78.5
2024-04-24T05:57:30.646Z,79
2024-04-24T05:58:36.934Z,79
2024-04-24T05:59:43.206Z,79
2024-04-24T06:00:49.482Z,79
2024-04-24T06:01:55.738Z,79.5
2024-04-24T06:03:02.018Z,79
2024-04-24T06:04:08.303Z,79.5
2024-04-24T06:05:14.556Z,78.5
2024-04-24T06:06:20.825Z,79
2024-04-24T06:07:27.107Z,79
2024-04-24T06:08:33.384Z,79.5
2024-04-24T06:09:39.653Z,79.5
2024-04-24T06:10:44.937Z,79.5
2024-04-24T06:11:51.225Z,78.5
2024-04-24T06:12:57.483Z,78.5
2024-04-24T06:14:03.755Z,78
2024-04-24T06:15:10.016Z,78
2024-04-24T06:16:16.378Z,77
2024-04-24T06:17:22.575Z,76
2024-04-24T06:18:28.846Z,77
2024-04-24T06:19:35.115Z,77
2024-04-24T06:20:41.387Z,77
2024-04-24T06:21:47.653Z,76.5
2024-04-24T06:22:53.935Z,76
2024-04-24T06:24:00.198Z,76.5
2024-04-24T06:25:05.499Z,76.5
2024-04-24T06:26:11.760Z,77
2024-04-24T06:27:18.048Z,76.5
2024-04-24T06:28:24.310Z,76.5
2024-04-24T06:29:30.582Z,76.5
2024-04-24T06:30:36.864Z,76.5
2024-04-24T06:31:43.136Z,77
2024-04-24T06:32:49.404Z,76.5
2024-04-24T06:33:55.665Z,75.5
2024-04-24T06:35:01.952Z,76.5
2024-04-24T06:36:08.219Z,76.5
2024-04-24T06:37:14.491Z,76.5
2024-04-24T06:38:20.758Z,76.5
2024-04-24T06:39:26.051Z,76
2024-04-24T06:40:32.347Z,76.5
2024-04-24T06:41:38.600Z,76.5
2024-04-24T06:42:44.874Z,76.5
2024-04-24T06:43:51.142Z,76
2024-04-24T06:44:57.431Z,75.5
2024-04-24T06:46:03.678Z,75.5
2024-04-24T06:47:09.957Z,75.5
2024-04-24T06:48:16.230Z,75.5
2024-04-24T06:49:22.502Z,75.5
2024-04-24T06:50:28.772Z,76
2024-04-24T06:51:35.052Z,75
2024-04-24T06:52:41.327Z,74.5
2024-04-24T06:53:46.612Z,75
2024-04-24T06:54:52.874Z,75
2024-04-24T06:55:59.145Z,75.5
2024-04-24T06:57:05.425Z,75.5
2024-04-24T06:58:11.697Z,74.5
2024-04-24T06:59:17.967Z,74.5
2024-04-24T07:00:23.298Z,74.5
2024-04-24T07:01:29.542Z,75.5
2024-04-24T07:02:35.806Z,75
2024-04-24T07:03:42.142Z,75.5
2024-04-24T07:04:48.371Z,75.5
2024-04-24T07:05:54.620Z,76
2024-04-24T07:07:00.899Z,76
2024-04-24T07:08:07.156Z,76.5
2024-04-24T07:09:13.433Z,76
2024-04-24T07:10:19.713Z,75
2024-04-24T07:11:25.965Z,74.5
2024-04-24T07:12:32.263Z,75
2024-04-24T07:13:38.523Z,75
2024-04-24T07:14:43.817Z,74.5
2024-04-24T07:15:50.087Z,74.5
2024-04-24T07:16:56.356Z,74
2024-04-24T07:18:02.622Z,74
2024-04-24T07:19:08.899Z,74.5
2024-04-24T07:20:15.196Z,74
2024-04-24T07:21:21.443Z,74
2024-04-24T07:22:27.809Z,74
2024-04-24T07:23:34.001Z,73.5
2024-04-24T07:24:40.267Z,73.5
2024-04-24T07:25:46.537Z,74
2024-04-24T07:26:52.804Z,74
2024-04-24T07:27:59.073Z,74
2024-04-24T07:29:04.378Z,74
2024-04-24T07:30:10.644Z,74
2024-04-24T07:31:17.118Z,74
2024-04-24T07:32:23.203Z,74
2024-04-24T07:33:29.449Z,74
2024-04-24T07:34:35.729Z,74
2024-04-24T07:35:42.014Z,74
2024-04-24T07:36:48.270Z,74
2024-04-24T07:37:54.542Z,73.5
2024-04-24T07:39:00.800Z,73.5
2024-04-24T07:40:07.114Z,72.5
2024-04-24T07:41:13.385Z,71.5
2024-04-24T07:42:19.642Z,71.5
2024-04-24T07:43:24.925Z,71.5
2024-04-24T07:44:31.197Z,71
2024-04-24T07:45:37.478Z,70.5
2024-04-24T07:46:43.734Z,70
2024-04-24T07:47:50.011Z,70
2024-04-24T07:48:56.319Z,70.5
2024-04-24T07:50:02.543Z,70.5
2024-04-24T07:51:08.917Z,70.5
2024-04-24T07:52:15.105Z,69.5
2024-04-24T07:53:21.429Z,69
2024-04-24T07:54:27.648Z,69
2024-04-24T07:55:33.927Z,69
2024-04-24T07:56:40.186Z,69.5
2024-04-24T07:57:45.501Z,68.5
2024-04-24T07:58:51.745Z,68
2024-04-24T07:59:58.038Z,68
2024-04-24T08:01:04.421Z,67
2024-04-24T08:02:10.564Z,67.5
2024-04-24T08:03:16.842Z,67
2024-04-24T08:04:23.119Z,68
2024-04-24T08:05:29.371Z,67.5
2024-04-24T08:06:35.641Z,67
2024-04-24T08:07:41.935Z,66
2024-04-24T08:08:48.199Z,65.5
2024-04-24T08:09:54.473Z,66
2024-04-24T08:11:00.738Z,65
2024-04-24T08:12:07.009Z,65
2024-04-24T08:13:12.291Z,64.5
2024-04-24T08:14:18.605Z,64
2024-04-24T08:15:24.837Z,63.5
2024-04-24T08:16:31.114Z,62.5
2024-04-24T08:17:37.393Z,62
2024-04-24T08:18:43.647Z,63
2024-04-24T08:19:49.953Z,62
2024-04-24T08:20:56.200Z,61.5
2024-04-24T08:22:02.465Z,62
2024-04-24T08:23:08.738Z,62.5
2024-04-24T08:24:15.021Z,61.5
2024-04-24T08:25:21.308Z,62
2024-04-24T08:26:27.567Z,59.5
2024-04-24T08:27:32.852Z,58
2024-04-24T08:28:39.141Z,59
2024-04-24T08:29:45.404Z,58
2024-04-24T08:30:51.671Z,54
2024-04-24T08:31:57.946Z,57
2024-04-24T08:33:04.207Z,54
2024-04-24T08:34:10.470Z,54.5
2024-04-24T08:35:16.775Z,54.5
2024-04-24T08:36:23.034Z,51.5
2024-04-24T08:37:29.317Z,51
2024-04-24T08:38:35.567Z,49
2024-04-24T08:39:41.876Z,49.5
2024-04-24T08:40:48.134Z,48.5
2024-04-24T08:41:53.413Z,51
2024-04-24T08:42:59.723Z,50
2024-04-24T08:44:05.972Z,51
2024-04-24T08:45:12.302Z,53
2024-04-24T08:46:18.483Z,51.5
2024-04-24T08:47:24.782Z,52
2024-04-24T08:48:31.025Z,48.5
2024-04-24T08:49:37.302Z,49.5
2024-04-24T08:50:43.603Z,49.5
2024-04-24T08:51:49.843Z,49.5
2024-04-24T08:52:56.106Z,49.5
2024-04-24T08:54:02.450Z,48
2024-04-24T08:55:08.668Z,48
2024-04-24T08:56:13.945Z,48.5
2024-04-24T08:57:20.254Z,49
2024-04-24T08:58:26.487Z,49.5
2024-04-24T08:59:32.762Z,49.5
2024-04-24T09:00:39.073Z,49.5
2024-04-24T09:01:45.302Z,48
2024-04-24T09:02:51.604Z,47.5
2024-04-24T09:03:57.856Z,47.5
2024-04-24T09:05:04.115Z,46.5
2024-04-24T09:06:10.542Z,46
2024-04-24T09:07:16.690Z,46.5
2024-04-24T09:08:22.961Z,46
2024-04-24T09:09:29.198Z,47.5
2024-04-24T09:10:34.526Z,46
2024-04-24T09:11:41.060Z,48
2024-04-24T09:12:47.111Z,47
2024-04-24T09:13:53.331Z,45
2024-04-24T09:14:59.608Z,45
2024-04-24T09:16:05.848Z,45
2024-04-24T09:17:12.116Z,46
2024-04-24T09:18:18.394Z,47
2024-04-24T09:19:24.695Z,46.5
2024-04-24T09:20:30.928Z,47
2024-04-24T09:21:37.231Z,47.5
2024-04-24T09:22:43.513Z,45.5
2024-04-24T09:23:49.769Z,46
2024-04-24T09:24:55.065Z,44
2024-04-24T09:26:01.320Z,45.5
2024-04-24T09:27:07.599Z,44
2024-04-24T09:28:13.864Z,46.5
2024-04-24T09:29:20.140Z,44.5
2024-04-24T09:30:26.429Z,43
2024-04-24T09:31:32.667Z,43.5
2024-04-24T09:32:38.948Z,45
2024-04-24T09:33:45.227Z,44.5
2024-04-24T09:34:51.498Z,45
2024-04-24T09:35:57.763Z,47.5
2024-04-24T09:37:04.031Z,46
2024-04-24T09:38:10.312Z,46
2024-04-24T09:39:15.595Z,46.5
2024-04-24T09:40:21.852Z,46.5
2024-04-24T09:41:28.139Z,46
2024-04-24T09:42:34.407Z,47.5
2024-04-24T09:43:40.665Z,46
2024-04-24T09:44:46.951Z,48
2024-04-24T09:45:53.224Z,49
2024-04-24T09:46:59.488Z,46
2024-04-24T09:48:05.801Z,47.5
2024-04-24T09:49:12.038Z,46.5
2024-04-24T09:50:18.288Z,46
2024-04-24T09:51:24.581Z,46.5
2024-04-24T09:52:30.897Z,48.5
2024-04-24T09:53:36.160Z,46.5
2024-04-24T09:54:42.414Z,48
2024-04-24T09:55:48.683Z,49
2024-04-24T09:56:54.941Z,46.5
2024-04-24T09:58:01.238Z,47
2024-04-24T09:59:07.494Z,48
2024-04-24T10:00:13.759Z,49
2024-04-24T10:01:20.030Z,48
2024-04-24T10:02:26.317Z,47
2024-04-24T10:03:32.584Z,47
2024-04-24T10:04:38.847Z,47.5
2024-04-24T10:05:45.118Z,47.5
2024-04-24T10:06:51.398Z,47.5
2024-04-24T10:07:56.682Z,49
2024-04-24T10:09:02.953Z,49
2024-04-24T10:10:09.244Z,49
2024-04-24T10:11:15.505Z,50
2024-04-24T10:12:21.781Z,49
2024-04-24T10:13:28.053Z,50
2024-04-24T10:14:34.328Z,50
2024-04-24T10:15:40.585Z,48.5
2024-04-24T10:16:46.931Z,49.5
2024-04-24T10:17:53.182Z,50.5
2024-04-24T10:18:59.405Z,50
2024-04-24T10:20:05.700Z,49.5
2024-04-24T10:21:11.932Z,48.5
2024-04-24T10:22:17.242Z,50
2024-04-24T10:23:23.507Z,48.5
2024-04-24T10:24:29.784Z,48.5
2024-04-24T10:25:36.080Z,49
2024-04-24T10:26:42.324Z,48
2024-04-24T10:27:48.633Z,48.5
2024-04-24T10:28:54.865Z,49
2024-04-24T10:30:01.166Z,49.5
2024-04-24T10:31:07.406Z,50
2024-04-24T10:32:13.672Z,51
2024-04-24T10:33:19.958Z,48.5
2024-04-24T10:34:26.248Z,49
2024-04-24T10:35:32.501Z,49
2024-04-24T10:36:37.790Z,48.5
2024-04-24T10:37:44.070Z,49
2024-04-24T10:38:50.330Z,49.5
2024-04-24T10:39:56.605Z,50
2024-04-24T10:41:02.871Z,50
2024-04-24T10:42:08.172Z,49
2024-04-24T10:43:14.439Z,49
2024-04-24T10:44:20.710Z,50
2024-04-24T10:45:26.988Z,50.5
2024-04-24T10:46:33.256Z,48.5
2024-04-24T10:47:39.523Z,50.5
2024-04-24T10:48:45.792Z,49.5
2024-04-24T10:49:52.159Z,49
2024-04-24T10:50:58.348Z,49
2024-04-24T10:52:04.631Z,50
2024-04-24T10:53:11.060Z,50
2024-04-24T10:54:17.155Z,50
2024-04-24T10:55:23.440Z,50
2024-04-24T10:56:28.707Z,50.5
2024-04-24T10:57:34.991Z,49.5
2024-04-24T10:58:41.258Z,50.5
2024-04-24T10:59:47.540Z,50
2024-04-24T11:00:53.814Z,50
2024-04-24T11:02:00.081Z,50.5
2024-04-24T11:03:06.357Z,50.5
2024-04-24T11:04:12.623Z,50.5
2024-04-24T11:05:18.903Z,50.5
2024-04-24T11:06:25.164Z,51
2024-04-24T11:07:31.435Z,51
2024-04-24T11:08:37.708Z,50.5
2024-04-24T11:09:43.999Z,52.5
2024-04-24T11:10:49.260Z,52.5
2024-04-24T11:11:55.545Z,52.5
2024-04-24T11:13:01.813Z,52.5
2024-04-24T11:14:08.092Z,51.5
2024-04-24T11:15:14.359Z,52
2024-04-24T11:16:20.632Z,51.5
2024-04-24T11:17:26.908Z,53
2024-04-24T11:18:33.177Z,52.5
2024-04-24T11:19:39.444Z,52.5
2024-04-24T11:20:45.715Z,53
2024-04-24T11:21:51.987Z,53
2024-04-24T11:22:58.260Z,53
2024-04-24T11:24:04.598Z,53.5
2024-04-24T11:25:09.816Z,53.5
2024-04-24T11:26:16.088Z,52.5
2024-04-24T11:27:22.518Z,53
2024-04-24T11:28:28.627Z,51.5
2024-04-24T11:29:34.906Z,52
2024-04-24T11:30:41.170Z,52.5
2024-04-24T11:31:47.474Z,52.5
2024-04-24T11:32:53.725Z,53
2024-04-24T11:33:59.998Z,54
2024-04-24T11:35:06.266Z,54
2024-04-24T11:36:12.529Z,55
2024-04-24T11:37:18.816Z,57
2024-04-24T11:38:25.079Z,60.5
2024-04-24T11:39:30.383Z,62
2024-04-24T11:40:36.646Z,63
2024-04-24T11:41:42.918Z,64.5
2024-04-24T11:42:49.188Z,64
2024-04-24T11:43:55.466Z,65
2024-04-24T11:45:01.733Z,63
2024-04-24T11:46:08.099Z,64
2024-04-24T11:47:14.286Z,63.5
2024-04-24T11:48:20.550Z,64
2024-04-24T11:49:26.829Z,64
2024-04-24T11:50:33.099Z,64
2024-04-24T11:51:39.361Z,64
2024-04-24T11:52:45.638Z,65
2024-04-24T11:53:50.924Z,64
2024-04-24T11:54:57.197Z,63.5
2024-04-24T11:56:03.508Z,63.5
2024-04-24T11:57:09.731Z,63.5
2024-04-24T11:58:16.014Z,62.5
2024-04-24T11:59:22.286Z,63.5
2024-04-24T12:00:28.560Z,62.5
2024-04-24T12:01:34.831Z,62.5
2024-04-24T12:02:41.094Z,61
2024-04-24T12:03:47.371Z,60.5
2024-04-24T12:04:53.640Z,60
2024-04-24T12:05:59.919Z,59.5
2024-04-24T12:07:06.190Z,60
2024-04-24T12:08:11.479Z,60
2024-04-24T12:09:17.755Z,59.5
2024-04-24T12:10:24.026Z,60
2024-04-24T12:11:30.282Z,60
2024-04-24T12:12:36.574Z,60.5
2024-04-24T12:13:42.828Z,60.5
2024-04-24T12:14:49.093Z,62
2024-04-24T12:15:55.376Z,63.5
2024-04-24T12:17:01.647Z,63.5
2024-04-24T12:18:07.920Z,62
2024-04-24T12:19:14.184Z,60
2024-04-24T12:20:20.466Z,60
2024-04-24T12:21:26.740Z,60
2024-04-24T12:22:32.032Z,60
2024-04-24T12:23:38.295Z,59.5
2024-04-24T12:24:44.567Z,59
2024-04-24T12:25:50.860Z,60.5
2024-04-24T12:26:57.108Z,59
2024-04-24T12:28:03.386Z,59.5
2024-04-24T12:29:09.681Z,59.5
2024-04-24T12:30:15.922Z,59.5
2024-04-24T12:31:22.204Z,58
2024-04-24T12:32:28.476Z,56.5
2024-04-24T12:33:34.742Z,57
2024-04-24T12:34:41.061Z,58
2024-04-24T12:35:47.290Z,57.5
2024-04-24T12:36:52.578Z,56.5
2024-04-24T12:37:58.846Z,57
2024-04-24T12:39:05.134Z,57.5
2024-04-24T12:40:11.402Z,57.5
2024-04-24T12:41:17.691Z,57
2024-04-24T12:42:24.038Z,58
2024-04-24T12:43:30.200Z,57.5
2024-04-24T12:44:36.481Z,58.5
2024-04-24T12:45:42.753Z,59
2024-04-24T12:46:49.055Z,58.5
2024-04-24T12:47:55.281Z,58.5
2024-04-24T12:49:01.573Z,58
2024-04-24T12:50:07.839Z,57.5
2024-04-24T12:51:13.160Z,58
2024-04-24T12:52:19.480Z,58
2024-04-24T12:53:25.694Z,57.5
2024-04-24T12:54:31.960Z,57.5
2024-04-24T12:55:38.246Z,57.5
2024-04-24T12:56:44.544Z,58
2024-04-24T12:57:50.762Z,57.5
2024-04-24T12:58:57.075Z,58
2024-04-24T13:00:03.303Z,58
2024-04-24T13:01:09.584Z,58.5
2024-04-24T13:02:15.837Z,59
2024-04-24T13:03:22.149Z,59.5
2024-04-24T13:04:28.392Z,60
2024-04-24T13:05:33.676Z,59.5
2024-04-24T13:06:39.947Z,59
2024-04-24T13:07:46.229Z,59.5
2024-04-24T13:08:52.503Z,59
2024-04-24T13:09:58.803Z,59
2024-04-24T13:11:05.038Z,59
2024-04-24T13:12:11.322Z,58.5
2024-04-24T13:13:17.587Z,58.5
2024-04-24T13:14:23.855Z,59
2024-04-24T13:15:30.125Z,58
2024-04-24T13:16:36.492Z,58.5
2024-04-24T13:17:42.674Z,58.5
2024-04-24T13:18:48.948Z,59.5
2024-04-24T13:19:54.240Z,59
2024-04-24T13:21:00.515Z,58
2024-04-24T13:22:06.774Z,56
2024-04-24T13:23:13.059Z,56
2024-04-24T13:24:19.330Z,55.5
2024-04-24T13:25:25.597Z,55.5
2024-04-24T13:26:31.875Z,56
2024-04-24T13:27:38.145Z,54.5
2024-04-24T13:28:44.491Z,54
2024-04-24T13:29:50.691Z,53
2024-04-24T13:30:56.955Z,53.5
2024-04-24T13:32:03.233Z,54.5
2024-04-24T13:33:09.508Z,54
2024-04-24T13:34:14.787Z,54
2024-04-24T13:35:21.054Z,53.5
2024-04-24T13:36:27.329Z,53.5
2024-04-24T13:37:33.591Z,55
2024-04-24T13:38:39.864Z,55
2024-04-24T13:39:46.150Z,54.5
2024-04-24T13:40:52.413Z,55.5
2024-04-24T13:41:58.684Z,56
2024-04-24T13:43:04.957Z,54.5
2024-04-24T13:44:11.255Z,54
2024-04-24T13:45:17.510Z,54
2024-04-24T13:46:23.765Z,55.5
2024-04-24T13:47:30.045Z,54
2024-04-24T13:48:35.336Z,54.5
2024-04-24T13:49:41.597Z,54.5
2024-04-24T13:50:47.877Z,56.5
2024-04-24T13:51:54.164Z,54
2024-04-24T13:53:00.460Z,54.5
2024-04-24T13:54:06.687Z,54
2024-04-24T13:55:12.967Z,55.5
2024-04-24T13:56:19.234Z,56.5
2024-04-24T13:57:25.498Z,55.5
2024-04-24T13:58:31.777Z,55
2024-04-24T13:59:38.049Z,54
2024-04-24T14:00:44.357Z,55.5
2024-04-24T14:01:50.589Z,55
2024-04-24T14:02:55.890Z,54.5
2024-04-24T14:04:02.171Z,54.5
2024-04-24T14:05:08.417Z,54.5
2024-04-24T14:06:14.729Z,54
2024-04-24T14:07:20.975Z,55
2024-04-24T14:08:27.256Z,55
2024-04-24T14:09:33.532Z,55.5
2024-04-24T14:10:39.784Z,55
2024-04-24T14:11:46.055Z,54
2024-04-24T14:12:52.325Z,53
2024-04-24T14:13:58.607Z,53
2024-04-24T14:15:04.878Z,52.5
2024-04-24T14:16:11.170Z,52
2024-04-24T14:17:16.424Z,52.5
2024-04-24T14:18:22.703Z,52.5
2024-04-24T14:19:28.977Z,52.5
2024-04-24T14:20:35.229Z,51.5
2024-04-24T14:21:41.509Z,52.5
2024-04-24T14:22:47.784Z,50.5
2024-04-24T14:23:53.077Z,50.5
2024-04-24T14:24:59.347Z,50.5
2024-04-24T14:26:05.611Z,50.5
2024-04-24T14:27:11.893Z,51.5
2024-04-24T14:28:18.174Z,51
2024-04-24T14:29:24.465Z,52
2024-04-24T14:30:30.712Z,50
2024-04-24T14:31:36.971Z,52
2024-04-24T14:32:43.252Z,50.5
2024-04-24T14:33:49.524Z,52
2024-04-24T14:34:55.800Z,52
2024-04-24T14:36:02.073Z,52.5
2024-04-24T14:37:08.332Z,52.5
2024-04-24T14:38:13.607Z,51
2024-04-24T14:39:19.909Z,50.5
2024-04-24T14:40:26.168Z,51
2024-04-24T14:41:32.478Z,52
2024-04-24T14:42:38.705Z,49.5
2024-04-24T14:43:44.981Z,50.5
2024-04-24T14:44:51.260Z,51
2024-04-24T14:45:57.529Z,51.5
2024-04-24T14:47:03.825Z,51.5
2024-04-24T14:48:10.098Z,52
2024-04-24T14:49:16.348Z,52.5
2024-04-24T14:50:22.620Z,51.5
2024-04-24T14:51:28.895Z,52.5
2024-04-24T14:52:35.158Z,53
2024-04-24T14:53:40.450Z,53.5
2024-04-24T14:54:46.738Z,52.5
2024-04-24T14:55:53.011Z,53
2024-04-24T14:56:59.272Z,51.5
2024-04-24T14:58:05.539Z,53
2024-04-24T14:59:11.811Z,52.5
2024-04-24T15:00:18.080Z,53
2024-04-24T15:01:24.359Z,53.5
2024-04-24T15:02:30.635Z,54
2024-04-24T15:03:36.894Z,55
2024-04-24T15:04:43.178Z,56
2024-04-24T15:05:49.450Z,56
2024-04-24T15:06:55.700Z,56
2024-04-24T15:08:01.008Z,56
2024-04-24T15:09:07.271Z,55.5
2024-04-24T15:10:13.534Z,56.5
2024-04-24T15:11:19.832Z,57
2024-04-24T15:12:26.098Z,57